Aeroporto :







RITROVATECI SU...

 
LOGIN :

Iscrizione | Disclaimer

   EN    FR    IT 

 









Sommario :    VFR   VFR Marginale   IFR   IFR Intensivo   IFR Molto Intensivo
Visibilità : 
Base nubi : 
>= 8 km
>= 3000ft
5 / 8 km
1000 / 3000 ft
1500m / 5 km
500 / 1000 ft
800 / 1500m
200 / 500 ft
< 800m
< 200 ft
Simboli :   Temporali  Nebbia  Neve Forte  Precipitazioni Forti  Vento > 20 kt






- Altitudine del aeroporto : 235 ft
- Codice IATA : CCS


SVMI - Simon Bolivar

ULTIMO METAR :
  • 251202Z AUTO 10004KT NCD -40/// Q1014

METARs OBSOLETI :
  • 251200Z 05003KT 9999 FEW016 25/22 Q1014
  • 251102Z AUTO 09007KT NCD -40/// Q1013
  • 251002Z AUTO 08006KT NCD -40/// Q1013

TAF TAF SVMI
Valido dal 24 a 18 ore il 25 a 18 ore UTC


241600Z 2418/2518 09007KT 9999 FEW016 TX32/18Z TN24/08Z
BECMG 2416/2422 09010KT SCT016 SCT100



MetMap, La meteo Aeronautica in un colpo d'occhio ! - Copyright ORBIFLY Dicembre 2007 - Disclaimer

ORBIFLY MET'MAP TEAM :

Programmazione e sviluppo : Alexandra Zaïnal
Concezione : Baudouin d'Aumeries
Aiuto per la programmazione : Marc-Olivier Méhu
Supporto tecnico e logistico : Manuel Goepfert
Aiuto per la traduzione : Arnaldo La Scala

Contatto : metmap@orbifly.com




FONTI E CREDITI :

   NOAA